createdAt,value
2023-04-12T00:00:51.644Z,36.8940
2023-04-12T00:01:54.041Z,36.8420
2023-04-12T00:02:54.533Z,36.8520
2023-04-12T00:03:57.318Z,36.8360
2023-04-12T00:04:58.990Z,36.8400
2023-04-12T00:06:01.286Z,36.8460
2023-04-12T00:07:03.625Z,36.8240
2023-04-12T00:08:03.846Z,36.8300
2023-04-12T00:09:06.333Z,36.8210
2023-04-12T00:10:08.633Z,36.8270
2023-04-12T00:11:11.019Z,36.8540
2023-04-12T00:12:11.274Z,36.8690
2023-04-12T00:13:13.664Z,36.8600
2023-04-12T00:14:16.104Z,36.8340
2023-04-12T00:15:18.493Z,36.8180
2023-04-12T00:16:18.804Z,36.8230
2023-04-12T00:17:21.175Z,36.8330
2023-04-12T00:18:23.599Z,36.8450
2023-04-12T00:19:26.062Z,36.8180
2023-04-12T00:20:26.208Z,36.8220
2023-04-12T00:21:28.609Z,36.8330
2023-04-12T00:22:30.989Z,36.8220
2023-04-12T00:23:33.370Z,36.8580
2023-04-12T00:24:33.628Z,36.8330
2023-04-12T00:25:35.991Z,36.8160
2023-04-12T00:26:38.379Z,36.7780
2023-04-12T00:27:40.838Z,36.7530
2023-04-12T00:28:43.159Z,36.7660
2023-04-12T00:29:43.433Z,36.7930
2023-04-12T00:30:45.843Z,36.8000
2023-04-12T00:31:48.502Z,36.8220
2023-04-12T00:32:48.441Z,36.8050
2023-04-12T00:33:50.797Z,36.8170
2023-04-12T00:34:53.154Z,36.7870
2023-04-12T00:35:55.478Z,36.7630
2023-04-12T00:36:55.719Z,36.7820
2023-04-12T00:37:58.043Z,36.7880
2023-04-12T00:39:00.402Z,36.7940
2023-04-12T00:40:02.883Z,36.8120
2023-04-12T00:41:05.114Z,36.8180
2023-04-12T00:42:05.325Z,36.8120
2023-04-12T00:43:07.657Z,36.7880
2023-04-12T00:44:10.066Z,36.7680
2023-04-12T00:45:12.503Z,36.7790
2023-04-12T00:46:12.746Z,36.7850
2023-04-12T00:47:15.167Z,36.7620
2023-04-12T00:48:17.551Z,36.7180
2023-04-12T00:49:20.020Z,36.7350
2023-04-12T00:50:20.273Z,36.6700
2023-04-12T00:51:22.777Z,36.6930
2023-04-12T00:52:25.105Z,36.7120
2023-04-12T00:53:27.515Z,36.6880
2023-04-12T00:54:27.763Z,36.7090
2023-04-12T00:55:30.269Z,36.7090
2023-04-12T00:56:32.586Z,36.7030
2023-04-12T00:57:35.004Z,36.7300
2023-04-12T00:58:35.261Z,36.7130
2023-04-12T00:59:37.687Z,36.7150
2023-04-12T01:00:40.143Z,36.7030
2023-04-12T01:01:42.594Z,36.6650
2023-04-12T01:02:42.895Z,36.6630
2023-04-12T01:03:45.100Z,36.6800
2023-04-12T01:04:47.365Z,36.7130
2023-04-12T01:05:49.716Z,36.7100
2023-04-12T01:06:51.999Z,36.7150
2023-04-12T01:07:52.229Z,36.6830
2023-04-12T01:08:54.596Z,36.6880
2023-04-12T01:09:56.930Z,36.6710
2023-04-12T01:10:59.308Z,36.6750
2023-04-12T01:11:59.484Z,36.7180
2023-04-12T01:13:01.904Z,36.6960
2023-04-12T01:14:04.352Z,36.6540
2023-04-12T01:15:06.703Z,36.6660
2023-04-12T01:16:07.095Z,36.6750
2023-04-12T01:17:09.414Z,36.7050
2023-04-12T01:18:11.814Z,36.7180
2023-04-12T01:19:14.179Z,36.6920
2023-04-12T01:20:14.498Z,36.6870
2023-04-12T01:21:16.860Z,36.6220
2023-04-12T01:22:19.262Z,36.6040
2023-04-12T01:23:21.644Z,36.5990
2023-04-12T01:24:21.807Z,36.6070
2023-04-12T01:25:24.315Z,36.6390
2023-04-12T01:26:26.774Z,36.6010
2023-04-12T01:27:29.016Z,36.5950
2023-04-12T01:28:29.249Z,36.5950
2023-04-12T01:29:31.663Z,36.5800
2023-04-12T01:30:34.073Z,36.5950
2023-04-12T01:31:36.631Z,36.5720
2023-04-12T01:32:36.755Z,36.5840
2023-04-12T01:33:39.042Z,36.5780
2023-04-12T01:34:41.450Z,36.5880
2023-04-12T01:35:43.892Z,36.5900
2023-04-12T01:36:44.180Z,36.5940
2023-04-12T01:37:46.491Z,36.6350
2023-04-12T01:38:48.900Z,36.6290
2023-04-12T01:39:51.278Z,36.6060
2023-04-12T01:40:53.689Z,36.6120
2023-04-12T01:41:54.052Z,36.5940
2023-04-12T01:42:56.304Z,36.6000
2023-04-12T01:43:59.078Z,36.5750
2023-04-12T01:45:01.083Z,36.5830
2023-04-12T01:46:01.416Z,36.6000
2023-04-12T01:47:03.766Z,36.6560
2023-04-12T01:48:06.175Z,36.6510
2023-04-12T01:49:06.354Z,36.6170
2023-04-12T01:50:08.740Z,36.5890
2023-04-12T01:51:11.152Z,36.6060
2023-04-12T01:52:13.506Z,36.6290
2023-04-12T01:53:13.698Z,36.6400
2023-04-12T01:54:16.056Z,36.6060
2023-04-12T01:55:18.411Z,36.6380
2023-04-12T01:56:20.765Z,36.6230
2023-04-12T01:57:23.207Z,36.6170
2023-04-12T01:58:25.394Z,36.6440
2023-04-12T01:59:25.553Z,36.6330
2023-04-12T02:00:27.880Z,36.5930
2023-04-12T02:01:30.257Z,36.5530
2023-04-12T02:02:32.710Z,36.5530
2023-04-12T02:03:35.025Z,36.5700
2023-04-12T02:04:35.063Z,36.5870
2023-04-12T02:05:37.368Z,36.5870
2023-04-12T02:06:39.717Z,36.5590
2023-04-12T02:07:42.037Z,36.5240
2023-04-12T02:08:44.388Z,36.5410
2023-04-12T02:09:46.734Z,36.5410
2023-04-12T02:10:46.910Z,36.5410
2023-04-12T02:11:49.227Z,36.5180
2023-04-12T02:12:51.613Z,36.4930
2023-04-12T02:13:53.943Z,36.4590
2023-04-12T02:14:56.287Z,36.4940
2023-04-12T02:15:56.472Z,36.4700
2023-04-12T02:16:58.888Z,36.5070
2023-04-12T02:18:01.303Z,36.5070
2023-04-12T02:19:03.558Z,36.5220
2023-04-12T02:20:05.907Z,36.5470
2023-04-12T02:21:06.095Z,36.5580
2023-04-12T02:22:08.546Z,36.5850
2023-04-12T02:23:10.849Z,36.5910
2023-04-12T02:24:13.164Z,36.6080
2023-04-12T02:25:13.394Z,36.5810
2023-04-12T02:26:15.772Z,36.5750
2023-04-12T02:27:18.147Z,36.5790
2023-04-12T02:28:20.563Z,36.5520
2023-04-12T02:29:22.804Z,36.5520
2023-04-12T02:30:22.975Z,36.5680
2023-04-12T02:31:25.376Z,36.5520
2023-04-12T02:32:27.795Z,36.5380
2023-04-12T02:33:30.161Z,36.5580
2023-04-12T02:34:30.376Z,36.5320
2023-04-12T02:35:32.782Z,36.5170
2023-04-12T02:36:35.158Z,36.5170
2023-04-12T02:37:37.564Z,36.5170
2023-04-12T02:38:37.855Z,36.5520
2023-04-12T02:39:40.153Z,36.5440
2023-04-12T02:40:42.548Z,36.5520
2023-04-12T02:41:44.907Z,36.5740
2023-04-12T02:42:47.240Z,36.5380
2023-04-12T02:43:47.602Z,36.5380
2023-04-12T02:44:49.867Z,36.5440
2023-04-12T02:45:52.273Z,36.5380
2023-04-12T02:46:54.593Z,36.5520
2023-04-12T02:47:54.861Z,36.5520
2023-04-12T02:48:57.258Z,36.5740
2023-04-12T02:49:59.502Z,36.5380
2023-04-12T02:51:01.837Z,36.5380
2023-04-12T02:52:04.202Z,36.5170
2023-04-12T02:53:04.444Z,36.5150
2023-04-12T02:54:06.723Z,36.5090
2023-04-12T02:55:08.985Z,36.5270
2023-04-12T02:56:11.233Z,36.5210
2023-04-12T02:57:13.504Z,36.5370
2023-04-12T02:58:15.738Z,36.5710
2023-04-12T02:59:16.014Z,36.5790
2023-04-12T03:00:18.258Z,36.6180
2023-04-12T03:01:20.565Z,36.6120
2023-04-12T03:02:23.227Z,36.6290
2023-04-12T03:03:25.310Z,36.6230
2023-04-12T03:04:27.572Z,36.5600
2023-04-12T03:05:29.781Z,36.5600
2023-04-12T03:06:29.961Z,36.5930
2023-04-12T03:07:32.268Z,36.5600
2023-04-12T03:08:34.586Z,36.5260
2023-04-12T03:09:36.865Z,36.5580
2023-04-12T03:10:39.136Z,36.5790
2023-04-12T03:11:41.407Z,36.5640
2023-04-12T03:12:43.649Z,36.5540
2023-04-12T03:13:43.794Z,36.5590
2023-04-12T03:14:46.085Z,36.5950
2023-04-12T03:15:48.398Z,36.5730
2023-04-12T03:16:50.621Z,36.5610
2023-04-12T03:17:52.947Z,36.5760
2023-04-12T03:18:55.201Z,36.5760
2023-04-12T03:19:57.614Z,36.6030
2023-04-12T03:20:57.645Z,36.5950
2023-04-12T03:21:59.964Z,36.5920
2023-04-12T03:23:02.256Z,36.6010
2023-04-12T03:24:04.597Z,36.5870
2023-04-12T03:25:06.867Z,36.5860
2023-04-12T03:26:09.112Z,36.5760
2023-04-12T03:27:11.412Z,36.5920
2023-04-12T03:28:11.551Z,36.5860
2023-04-12T03:29:12.730Z,36.7110
2023-04-12T03:30:15.124Z,36.8990
2023-04-12T03:31:15.203Z,36.9850
2023-04-12T03:32:17.499Z,37.0540
2023-04-12T03:33:19.856Z,37.1310
2023-04-12T03:34:22.193Z,37.1730
2023-04-12T03:35:24.616Z,37.2190
2023-04-12T03:36:26.908Z,37.2190
2023-04-12T03:37:27.184Z,37.1960
2023-04-12T03:38:29.440Z,37.2590
2023-04-12T03:39:31.773Z,37.2780
2023-04-12T03:40:34.102Z,37.2780
2023-04-12T03:41:36.327Z,37.2860
2023-04-12T03:42:38.609Z,37.2750
2023-04-12T03:43:40.911Z,37.3340
2023-04-12T03:44:41.080Z,37.2840
2023-04-12T03:45:43.403Z,37.2940
2023-04-12T03:46:45.729Z,37.3170
2023-04-12T03:47:48.076Z,37.3620
2023-04-12T03:48:50.279Z,37.3550
2023-04-12T03:50:09.770Z,37.3510
2023-04-12T03:50:54.852Z,37.3570
2023-04-12T03:51:57.174Z,37.3760
2023-04-12T03:52:59.415Z,37.4100
2023-04-12T03:54:01.661Z,37.3890
2023-04-12T03:55:03.941Z,37.4100
2023-04-12T03:56:06.209Z,37.4270
2023-04-12T03:57:08.481Z,37.4370
2023-04-12T03:58:10.759Z,37.4580
2023-04-12T03:59:13.070Z,37.5170
2023-04-12T04:00:15.338Z,37.5340
2023-04-12T04:01:17.806Z,37.5630
2023-04-12T04:02:17.908Z,37.5610
2023-04-12T04:03:20.302Z,37.6010
2023-04-12T04:04:22.537Z,37.6660
2023-04-12T04:05:24.692Z,37.6890
2023-04-12T04:06:26.979Z,37.7350
2023-04-12T04:07:29.184Z,37.7360
2023-04-12T04:08:31.388Z,37.7460
2023-04-12T04:09:33.644Z,37.7840
2023-04-12T04:10:36.045Z,37.7780
2023-04-12T04:11:38.336Z,37.8490
2023-04-12T04:12:40.562Z,37.8960
2023-04-12T04:13:42.889Z,37.9460
2023-04-12T04:14:45.252Z,38.0240
2023-04-12T04:15:47.610Z,38.0280
2023-04-12T04:16:50.085Z,38.0870
2023-04-12T04:17:52.391Z,38.1220
2023-04-12T04:18:52.555Z,38.1750
2023-04-12T04:19:54.895Z,38.1930
2023-04-12T04:20:57.303Z,38.1830
2023-04-12T04:21:57.506Z,38.2230
2023-04-12T04:22:59.866Z,38.2460
2023-04-12T04:24:02.253Z,38.2580
2023-04-12T04:25:02.516Z,38.2420
2023-04-12T04:26:04.926Z,38.2570
2023-04-12T04:27:07.343Z,38.2900
2023-04-12T04:28:07.571Z,38.3130
2023-04-12T04:29:09.968Z,38.3380
2023-04-12T04:30:12.364Z,38.3760
2023-04-12T04:31:14.786Z,38.3570
2023-04-12T04:32:17.171Z,38.3660
2023-04-12T04:33:17.411Z,38.3950
2023-04-12T04:34:19.837Z,38.4370
2023-04-12T04:35:22.244Z,38.4910
2023-04-12T04:36:22.451Z,38.5050
2023-04-12T04:37:24.831Z,38.4810
2023-04-12T04:38:27.156Z,38.5100
2023-04-12T04:39:27.545Z,38.5040
2023-04-12T04:40:29.734Z,38.5410
2023-04-12T04:41:32.172Z,38.5680
2023-04-12T04:42:32.347Z,38.6030
2023-04-12T04:43:34.724Z,38.6410
2023-04-12T04:44:37.027Z,38.6330
2023-04-12T04:45:37.238Z,38.6510
2023-04-12T04:46:39.578Z,38.6850
2023-04-12T04:47:41.942Z,38.6800
2023-04-12T04:48:44.220Z,38.4670
2023-04-12T04:49:46.636Z,38.5680
2023-04-12T04:50:48.965Z,38.6670
2023-04-12T04:51:49.242Z,38.7480
2023-04-12T04:52:51.635Z,38.8200
2023-04-12T04:53:54.128Z,38.8530
2023-04-12T04:54:56.438Z,38.8240
2023-04-12T04:55:58.852Z,38.8340
2023-04-12T04:56:59.099Z,38.8030
2023-04-12T04:58:01.615Z,38.8310
2023-04-12T04:59:03.913Z,38.7810
2023-04-12T05:00:04.106Z,38.7780
2023-04-12T05:01:06.496Z,38.8310
2023-04-12T05:02:08.874Z,38.8250
2023-04-12T05:03:09.165Z,38.7900
2023-04-12T05:04:11.568Z,38.7750
2023-04-12T05:05:13.905Z,38.8000
2023-04-12T05:06:16.259Z,38.8330
2023-04-12T05:07:18.634Z,38.8260
2023-04-12T05:08:18.918Z,38.7970
2023-04-12T05:09:21.237Z,38.7950
2023-04-12T05:10:23.573Z,38.8120
2023-04-12T05:11:25.931Z,38.7700
2023-04-12T05:12:28.376Z,38.7700
2023-04-12T05:13:30.820Z,38.7970
2023-04-12T05:14:44.065Z,38.7860
2023-04-12T05:15:33.245Z,38.7760
2023-04-12T05:16:35.581Z,38.6890
2023-04-12T05:17:35.834Z,38.5900
2023-04-12T05:18:38.274Z,38.5670
2023-04-12T05:19:40.522Z,38.5490
2023-04-12T05:20:40.732Z,38.5430
2023-04-12T05:21:43.080Z,38.5490
2023-04-12T05:22:45.438Z,38.5460
2023-04-12T05:23:45.674Z,38.5410
2023-04-12T05:24:47.957Z,38.5440
2023-04-12T05:25:50.295Z,38.4900
2023-04-12T05:26:52.590Z,38.5010
2023-04-12T05:27:54.969Z,38.4550
2023-04-12T05:28:57.618Z,38.4830
2023-04-12T05:29:59.701Z,38.5160
2023-04-12T05:31:02.142Z,38.4780
2023-04-12T05:32:04.363Z,38.4530
2023-04-12T05:33:04.619Z,38.3910
2023-04-12T05:34:07.036Z,38.3920
2023-04-12T05:35:09.280Z,38.4150
2023-04-12T05:36:09.454Z,38.3680
2023-04-12T05:37:11.835Z,38.4010
2023-04-12T05:38:14.171Z,38.3970
2023-04-12T05:39:20.528Z,38.3910
2023-04-12T05:40:18.854Z,38.3950
2023-04-12T05:41:21.239Z,38.3860
2023-04-12T05:42:21.569Z,38.4030
2023-04-12T05:43:23.899Z,38.4220
2023-04-12T05:44:26.147Z,38.4280
2023-04-12T05:45:28.367Z,38.3910
2023-04-12T05:46:28.509Z,38.3740
2023-04-12T05:47:30.868Z,38.3700
2023-04-12T05:48:33.183Z,38.3480
2023-04-12T05:49:33.426Z,38.3290
2023-04-12T05:50:35.793Z,38.3210
2023-04-12T05:51:41.403Z,38.3100
2023-04-12T05:52:38.332Z,38.3350
2023-04-12T05:53:40.687Z,38.3190
2023-04-12T05:54:43.103Z,38.3000
2023-04-12T05:55:47.014Z,38.2860
2023-04-12T05:56:47.762Z,38.1460
2023-04-12T05:57:50.041Z,38.0020
2023-04-12T05:58:52.349Z,37.9050
2023-04-12T05:59:52.509Z,37.8190
2023-04-12T06:00:54.808Z,37.7800
2023-04-12T06:01:57.202Z,37.7320
2023-04-12T06:02:59.616Z,37.7320
2023-04-12T06:04:01.920Z,37.7540
2023-04-12T06:05:04.226Z,37.5760
2023-04-12T06:06:04.181Z,37.6120
2023-04-12T06:07:06.514Z,37.6770
2023-04-12T06:08:08.870Z,37.7330
2023-04-12T06:09:11.149Z,37.6270
2023-04-12T06:10:13.560Z,37.6600
2023-04-12T06:11:15.795Z,37.8330
2023-04-12T06:12:15.983Z,37.8120
2023-04-12T06:13:18.325Z,37.7950
2023-04-12T06:14:20.649Z,37.7730
2023-04-12T06:15:22.994Z,37.7270
2023-04-12T06:16:25.306Z,37.7110
2023-04-12T06:17:27.651Z,37.6960
2023-04-12T06:18:27.766Z,37.6360
2023-04-12T06:19:30.070Z,37.5780
2023-04-12T06:20:32.462Z,37.6000
2023-04-12T06:21:34.678Z,37.5530
2023-04-12T06:22:34.854Z,37.5190
2023-04-12T06:23:37.185Z,37.5130
2023-04-12T06:24:37.300Z,37.5210
2023-04-12T06:25:39.580Z,37.5510
2023-04-12T06:26:41.830Z,37.5190
2023-04-12T06:27:45.132Z,37.5970
2023-04-12T06:28:46.542Z,37.6410
2023-04-12T06:29:48.871Z,37.6180
2023-04-12T06:30:49.156Z,37.6600
2023-04-12T06:31:52.331Z,37.6540
2023-04-12T06:32:53.810Z,37.6140
2023-04-12T06:33:56.087Z,37.6270
2023-04-12T06:34:56.228Z,37.6320
2023-04-12T06:35:58.742Z,37.6490
2023-04-12T06:37:00.884Z,37.6840
2023-04-12T06:38:03.205Z,37.7100
2023-04-12T06:39:05.564Z,37.7320
2023-04-12T06:40:07.908Z,37.7470
2023-04-12T06:41:08.205Z,37.7580
2023-04-12T06:42:11.220Z,37.7640
2023-04-12T06:43:12.819Z,37.7660
2023-04-12T06:44:13.039Z,37.7640
2023-04-12T06:45:13.296Z,37.7330
2023-04-12T06:46:15.779Z,37.7330
2023-04-12T06:47:17.975Z,37.7270
2023-04-12T06:48:20.375Z,37.7210
2023-04-12T06:49:20.622Z,37.6940
2023-04-12T06:50:23.237Z,37.6650
2023-04-12T06:51:25.419Z,37.6870
2023-04-12T06:52:27.786Z,37.7290
2023-04-12T06:53:30.160Z,37.7130
2023-04-12T06:54:30.395Z,37.7390
2023-04-12T06:55:32.768Z,37.7570
2023-04-12T06:56:35.326Z,37.8120
2023-04-12T06:57:37.545Z,37.8270
2023-04-12T06:58:37.784Z,37.8120
2023-04-12T06:59:40.285Z,37.8380
2023-04-12T07:00:42.622Z,37.8980
2023-04-12T07:01:44.932Z,37.9260
2023-04-12T07:02:45.277Z,37.9360
2023-04-12T07:03:47.561Z,37.9080
2023-04-12T07:04:49.795Z,37.9140
2023-04-12T07:05:52.101Z,37.8950
2023-04-12T07:06:54.504Z,37.9140
2023-04-12T07:07:54.689Z,37.9480
2023-04-12T07:08:57.380Z,37.9970
2023-04-12T07:09:59.422Z,38.0440
2023-04-12T07:11:08.931Z,38.0250
2023-04-12T07:12:04.026Z,38.0190
2023-04-12T07:13:06.276Z,38.0170
2023-04-12T07:14:08.555Z,37.9740
2023-04-12T07:15:08.716Z,37.9630
2023-04-12T07:16:11.211Z,37.9150
2023-04-12T07:17:11.332Z,37.9450
2023-04-12T07:18:13.447Z,37.9180
2023-04-12T07:19:15.850Z,37.9140
2023-04-12T07:20:18.060Z,37.9180
2023-04-12T07:21:20.387Z,37.9450
2023-04-12T07:22:22.859Z,37.9140
2023-04-12T07:23:22.916Z,37.8630
2023-04-12T07:24:25.235Z,37.8380
2023-04-12T07:25:27.608Z,37.8630
2023-04-12T07:26:29.859Z,37.8800
2023-04-12T07:27:32.207Z,37.8470
2023-04-12T07:28:34.481Z,37.8360
2023-04-12T07:29:34.650Z,37.8630
2023-04-12T07:30:36.978Z,37.8470
2023-04-12T07:31:39.627Z,37.8590
2023-04-12T07:32:41.801Z,37.8390
2023-04-12T07:33:44.188Z,37.8060
2023-04-12T07:34:44.191Z,37.8390
2023-04-12T07:35:46.590Z,37.8620
2023-04-12T07:36:48.767Z,37.8650
2023-04-12T07:37:51.245Z,37.8560
2023-04-12T07:38:53.477Z,37.8500
2023-04-12T07:39:55.887Z,37.8500
2023-04-12T07:40:56.059Z,37.7920
2023-04-12T07:41:58.424Z,37.7920
2023-04-12T07:43:00.807Z,37.7630
2023-04-12T07:44:03.014Z,37.7240
2023-04-12T07:45:05.352Z,37.6670
2023-04-12T07:46:05.569Z,37.6180
2023-04-12T07:47:07.882Z,37.5940
2023-04-12T07:48:10.176Z,37.5650
2023-04-12T07:49:12.505Z,37.5590
2023-04-12T07:50:14.754Z,37.5290
2023-04-12T07:51:17.061Z,37.5230
2023-04-12T07:52:17.249Z,37.5020
2023-04-12T07:53:19.518Z,37.4830
2023-04-12T07:54:23.089Z,37.4890
2023-04-12T07:55:24.125Z,37.4830
2023-04-12T07:56:26.435Z,37.4560
2023-04-12T07:57:28.735Z,37.4260
2023-04-12T07:58:28.926Z,37.4170
2023-04-12T07:59:31.193Z,37.3870
2023-04-12T08:00:33.497Z,37.3750
2023-04-12T08:01:35.808Z,37.3310
2023-04-12T08:02:38.290Z,37.3060
2023-04-12T08:03:40.700Z,37.2850
2023-04-12T08:04:40.730Z,37.2940
2023-04-12T08:05:42.880Z,37.2680
2023-04-12T08:06:45.122Z,37.2530
2023-04-12T08:07:47.418Z,37.2600
2023-04-12T08:08:50.618Z,37.2770
2023-04-12T08:09:52.012Z,37.2560
2023-04-12T08:10:54.315Z,37.2190
2023-04-12T08:11:54.466Z,37.2170
2023-04-12T08:12:56.864Z,37.2270
2023-04-12T08:13:59.468Z,37.1990
2023-04-12T08:15:01.426Z,37.2980
2023-04-12T08:16:03.798Z,37.3240
2023-04-12T08:17:06.098Z,37.3300
2023-04-12T08:18:06.358Z,37.3850
2023-04-12T08:19:08.631Z,37.4010
2023-04-12T08:20:10.908Z,37.4160
2023-04-12T08:21:13.293Z,37.4520
2023-04-12T08:22:15.616Z,37.5570
2023-04-12T08:23:17.968Z,37.5920
2023-04-12T08:24:18.278Z,37.5300
2023-04-12T08:25:20.538Z,37.4740
2023-04-12T08:26:22.914Z,37.3820
2023-04-12T08:27:23.210Z,37.3650
2023-04-12T08:28:25.444Z,37.3940
2023-04-12T08:29:27.805Z,37.3650
2023-04-12T08:30:30.054Z,37.3810
2023-04-12T08:31:32.416Z,37.3290
2023-04-12T08:32:34.723Z,37.2940
2023-04-12T08:33:34.888Z,37.3280
2023-04-12T08:34:37.163Z,37.3340
2023-04-12T08:35:39.396Z,37.3180
2023-04-12T08:36:41.673Z,37.2690
2023-04-12T08:37:43.911Z,37.2750
2023-04-12T08:38:46.788Z,37.2420
2023-04-12T08:39:48.379Z,37.3170
2023-04-12T08:40:50.561Z,37.3060
2023-04-12T08:41:52.787Z,37.2370
2023-04-12T08:42:54.978Z,37.2020
2023-04-12T08:43:57.506Z,37.2020
2023-04-12T08:44:59.405Z,37.2090
2023-04-12T08:46:01.604Z,37.1920
2023-04-12T08:47:01.674Z,37.1560
2023-04-12T08:48:03.942Z,37.0980
2023-04-12T08:49:06.193Z,37.0140
2023-04-12T08:50:08.561Z,36.9900
2023-04-12T08:51:08.587Z,36.9520
2023-04-12T08:52:10.932Z,36.9310
2023-04-12T08:53:13.285Z,36.9600
2023-04-12T08:54:13.493Z,36.9400
2023-04-12T08:55:15.844Z,36.9730
2023-04-12T08:56:18.097Z,36.9800
2023-04-12T08:57:20.389Z,36.9210
2023-04-12T08:58:22.673Z,36.9150
2023-04-12T08:59:24.946Z,36.8790
2023-04-12T09:00:25.147Z,37.0050
2023-04-12T09:01:27.406Z,36.9510
2023-04-12T09:02:29.716Z,36.9460
2023-04-12T09:03:33.688Z,36.9470
2023-04-12T09:04:34.383Z,36.9670
2023-04-12T09:05:36.458Z,36.9480
2023-04-12T09:06:38.762Z,36.9790
2023-04-12T09:07:38.898Z,37.0020
2023-04-12T09:08:41.240Z,36.9400
2023-04-12T09:09:43.561Z,36.8920
2023-04-12T09:10:45.948Z,36.9160
2023-04-12T09:11:48.152Z,36.8980
2023-04-12T09:12:52.405Z,36.8450
2023-04-12T09:13:50.622Z,36.8160
2023-04-12T09:14:52.902Z,36.8270
2023-04-12T09:15:55.315Z,36.7780
2023-04-12T09:16:57.636Z,36.6980
2023-04-12T09:17:59.929Z,36.6910
2023-04-12T09:19:02.185Z,36.6860
2023-04-12T09:20:02.566Z,36.6970
2023-04-12T09:21:04.686Z,36.6410
2023-04-12T09:22:06.920Z,36.5830
2023-04-12T09:23:09.215Z,36.5740
2023-04-12T09:24:14.198Z,36.5680
2023-04-12T09:25:13.823Z,36.6360
2023-04-12T09:26:16.219Z,36.6550
2023-04-12T09:27:18.417Z,36.7030
2023-04-12T09:28:18.582Z,36.6240
2023-04-12T09:29:20.896Z,36.5200
2023-04-12T09:30:23.253Z,36.5260
2023-04-12T09:31:25.755Z,36.4480
2023-04-12T09:32:25.864Z,36.4040
2023-04-12T09:33:28.154Z,36.4040
2023-04-12T09:34:30.491Z,36.4200
2023-04-12T09:35:32.913Z,36.3770
2023-04-12T09:36:35.141Z,36.3380
2023-04-12T09:37:35.227Z,36.3250
2023-04-12T09:38:37.570Z,36.3020
2023-04-12T09:39:40.723Z,36.3080
2023-04-12T09:40:42.136Z,36.3030
2023-04-12T09:41:44.429Z,36.3140
2023-04-12T09:42:46.683Z,36.2870
2023-04-12T09:43:48.967Z,36.2770
2023-04-12T09:44:49.180Z,36.3220
2023-04-12T09:45:51.509Z,36.3340
2023-04-12T09:46:54.001Z,36.3340
2023-04-12T09:47:56.119Z,36.3680
2023-04-12T09:48:58.398Z,36.3350
2023-04-12T09:50:00.647Z,36.4040
2023-04-12T09:51:02.974Z,36.3750
2023-04-12T09:52:03.107Z,36.3120
2023-04-12T09:53:05.377Z,36.2840
2023-04-12T09:54:07.629Z,36.2770
2023-04-12T09:55:12.427Z,36.2430
2023-04-12T09:56:12.169Z,36.2020
2023-04-12T09:57:14.506Z,36.1600
2023-04-12T09:58:16.729Z,36.1670
2023-04-12T09:59:18.993Z,36.2430
2023-04-12T10:00:19.184Z,36.4060
2023-04-12T10:01:21.414Z,36.4650
2023-04-12T10:02:24.023Z,36.5030
2023-04-12T10:03:26.019Z,36.5570
2023-04-12T10:04:28.499Z,36.6260
2023-04-12T10:05:30.597Z,36.6280
2023-04-12T10:06:32.841Z,36.7280
2023-04-12T10:07:32.976Z,36.8790
2023-04-12T10:08:35.185Z,36.9540
2023-04-12T10:09:37.547Z,36.9410
2023-04-12T10:10:39.824Z,36.9830
2023-04-12T10:11:42.232Z,37.1010
2023-04-12T10:12:42.387Z,37.0970
2023-04-12T10:13:44.706Z,37.1200
2023-04-12T10:14:47.038Z,37.2620
2023-04-12T10:15:49.454Z,37.4120
2023-04-12T10:16:51.693Z,37.5440
2023-04-12T10:17:54.140Z,37.7150
2023-04-12T10:18:54.199Z,37.8220
2023-04-12T10:19:56.496Z,37.9630
2023-04-12T10:20:58.826Z,38.0430
2023-04-12T10:22:01.192Z,38.0510
2023-04-12T10:23:03.624Z,38.0680
2023-04-12T10:24:05.844Z,38.0810
2023-04-12T10:25:06.025Z,38.1040
2023-04-12T10:26:31.538Z,38.2480
2023-04-12T10:27:32.200Z,38.2850
2023-04-12T10:28:34.481Z,38.2410
2023-04-12T10:29:36.724Z,38.1710
2023-04-12T10:30:39.003Z,38.1240
2023-04-12T10:31:41.310Z,38.0590
2023-04-12T10:32:43.643Z,38.0310
2023-04-12T10:33:45.955Z,37.9990
2023-04-12T10:34:46.092Z,37.9760
2023-04-12T10:35:48.454Z,37.9270
2023-04-12T10:36:50.642Z,37.8740
2023-04-12T10:37:52.950Z,37.8850
2023-04-12T10:38:55.197Z,37.8960
2023-04-12T10:39:57.497Z,37.8480
2023-04-12T10:40:59.730Z,37.7870
2023-04-12T10:41:59.872Z,37.7400
2023-04-12T10:43:02.040Z,37.6920
2023-04-12T10:44:04.810Z,37.6500
2023-04-12T10:45:06.445Z,37.6750
2023-04-12T10:46:08.686Z,37.6700
2023-04-12T10:47:10.847Z,37.7040
2023-04-12T10:48:13.019Z,37.6910
2023-04-12T10:49:15.284Z,37.6980
2023-04-12T10:50:17.368Z,37.6950
2023-04-12T10:51:20.518Z,37.7070
2023-04-12T10:52:21.837Z,37.7370
2023-04-12T10:53:24.162Z,37.7080
2023-04-12T10:54:26.528Z,37.7440
2023-04-12T10:55:28.775Z,37.8530
2023-04-12T10:56:31.599Z,37.9710
2023-04-12T10:57:31.195Z,38.0240
2023-04-12T10:58:33.521Z,38.0820
2023-04-12T10:59:47.398Z,38.1750
2023-04-12T11:00:38.135Z,38.2810
2023-04-12T11:01:40.478Z,38.2940
2023-04-12T11:02:40.595Z,38.2250
2023-04-12T11:03:42.884Z,38.1960
2023-04-12T11:04:45.142Z,38.2250
2023-04-12T11:05:47.533Z,38.2180
2023-04-12T11:06:49.732Z,38.1390
2023-04-12T11:07:52.018Z,38.1550
2023-04-12T11:08:52.228Z,38.1790
2023-04-12T11:09:54.571Z,38.1740
2023-04-12T11:10:56.892Z,38.1790
2023-04-12T11:11:59.255Z,38.1320
2023-04-12T11:13:01.546Z,38.1110
2023-04-12T11:14:03.763Z,38.0880
2023-04-12T11:15:05.679Z,38.0630
2023-04-12T11:16:06.178Z,38.0700
2023-04-12T11:17:08.539Z,38.0350
2023-04-12T11:18:10.879Z,38.0520
2023-04-12T11:19:13.124Z,37.9920
2023-04-12T11:20:15.558Z,37.9670
2023-04-12T11:21:15.676Z,37.9480
2023-04-12T11:22:18.016Z,37.8800
2023-04-12T11:23:20.382Z,37.9090
2023-04-12T11:24:22.711Z,37.8640
2023-04-12T11:25:25.032Z,37.8180
2023-04-12T11:26:27.247Z,37.7930
2023-04-12T11:27:27.375Z,37.8130
2023-04-12T11:28:31.835Z,37.8550
2023-04-12T11:29:31.854Z,37.8730
2023-04-12T11:30:34.296Z,37.8220
2023-04-12T11:31:36.466Z,37.8190
2023-04-12T11:32:38.810Z,37.8520
2023-04-12T11:33:40.988Z,37.8120
2023-04-12T11:34:41.098Z,37.8230
2023-04-12T11:35:43.426Z,37.8040
2023-04-12T11:36:45.701Z,37.7810
2023-04-12T11:37:48.023Z,37.7470
2023-04-12T11:39:32.127Z,37.6930
2023-04-12T11:40:33.485Z,37.6890
2023-04-12T11:41:35.870Z,37.5820
2023-04-12T11:42:38.057Z,37.5410
2023-04-12T11:43:40.388Z,37.4760
2023-04-12T11:44:56.281Z,37.4270
2023-04-12T11:45:42.884Z,37.4190
2023-04-12T11:46:45.172Z,37.3770
2023-04-12T11:47:47.551Z,37.3200
2023-04-12T11:48:49.839Z,37.3140
2023-04-12T11:49:52.144Z,37.2620
2023-04-12T11:51:03.614Z,37.2380
2023-04-12T11:51:54.784Z,37.2740
2023-04-12T11:52:56.982Z,37.2380
2023-04-12T11:53:59.779Z,37.2210
2023-04-12T11:55:01.635Z,37.1920
2023-04-12T11:56:04.765Z,37.1730
2023-04-12T11:57:05.654Z,37.1850
2023-04-12T11:58:06.416Z,37.2030
2023-04-12T11:59:08.735Z,37.2060
2023-04-12T12:00:11.170Z,37.1830
2023-04-12T12:01:13.404Z,37.1130
2023-04-12T12:02:22.634Z,37.1630
2023-04-12T12:03:16.076Z,37.1990
2023-04-12T12:04:18.550Z,37.1720
2023-04-12T12:05:20.820Z,37.1520
2023-04-12T12:06:23.471Z,37.1920
2023-04-12T12:07:25.963Z,37.2230
2023-04-12T12:08:25.489Z,37.2060
2023-04-12T12:09:27.814Z,37.2560
2023-04-12T12:10:42.040Z,37.2410
2023-04-12T12:11:30.277Z,37.2920
2023-04-12T12:12:32.670Z,37.2750
2023-04-12T12:13:32.644Z,37.2810
2023-04-12T12:14:34.932Z,37.2500
2023-04-12T12:15:37.248Z,37.2100
2023-04-12T12:16:39.410Z,37.1570
2023-04-12T12:17:41.847Z,37.1570
2023-04-12T12:18:43.980Z,37.1860
2023-04-12T12:19:46.276Z,37.1910
2023-04-12T12:20:46.419Z,37.1630
2023-04-12T12:21:48.693Z,37.1570
2023-04-12T12:22:50.967Z,37.1400
2023-04-12T12:23:53.194Z,37.1130
2023-04-12T12:24:55.492Z,37.1150
2023-04-12T12:26:06.408Z,37.1210
2023-04-12T12:27:00.000Z,37.1560
2023-04-12T12:28:02.396Z,37.1520
2023-04-12T12:29:04.524Z,37.1400
2023-04-12T12:30:04.653Z,37.0750